sensor_id;sensor_type;location;lat;lon;timestamp;pressure;altitude;pressure_sealevel;temperature;humidity
58295;BME280;45705;55.592;37.460;2023-06-14T00:01:53;99485.69;;;13.57;67.38
58295;BME280;45705;55.592;37.460;2023-06-14T00:04:20;99492.88;;;13.35;69.06
58295;BME280;45705;55.592;37.460;2023-06-14T00:06:47;99490.50;;;13.43;68.25
58295;BME280;45705;55.592;37.460;2023-06-14T00:09:14;99501.56;;;13.37;68.78
58295;BME280;45705;55.592;37.460;2023-06-14T00:11:41;99488.13;;;13.10;70.72
58295;BME280;45705;55.592;37.460;2023-06-14T00:14:07;99498.28;;;13.18;71.03
58295;BME280;45705;55.592;37.460;2023-06-14T00:16:33;99499.22;;;13.13;69.77
58295;BME280;45705;55.592;37.460;2023-06-14T00:19:03;99492.00;;;13.09;70.88
58295;BME280;45705;55.592;37.460;2023-06-14T00:21:30;99493.94;;;13.17;70.09
58295;BME280;45705;55.592;37.460;2023-06-14T00:23:58;99488.25;;;12.87;72.97
58295;BME280;45705;55.592;37.460;2023-06-14T00:26:23;99496.63;;;12.99;72.26
58295;BME280;45705;55.592;37.460;2023-06-14T00:28:51;99487.78;;;13.03;73.24
58295;BME280;45705;55.592;37.460;2023-06-14T00:31:17;99488.94;;;13.02;72.11
58295;BME280;45705;55.592;37.460;2023-06-14T00:33:43;99490.38;;;13.08;72.80
58295;BME280;45705;55.592;37.460;2023-06-14T00:36:11;99488.44;;;12.99;74.16
58295;BME280;45705;55.592;37.460;2023-06-14T00:38:37;99474.09;;;12.85;74.43
58295;BME280;45705;55.592;37.460;2023-06-14T00:41:02;99489.06;;;12.96;73.67
58295;BME280;45705;55.592;37.460;2023-06-14T00:43:29;99485.94;;;12.80;74.76
58295;BME280;45705;55.592;37.460;2023-06-14T00:45:55;99489.16;;;12.74;76.51
58295;BME280;45705;55.592;37.460;2023-06-14T00:48:20;99487.88;;;12.80;76.33
58295;BME280;45705;55.592;37.460;2023-06-14T00:50:47;99496.19;;;12.75;76.94
58295;BME280;45705;55.592;37.460;2023-06-14T00:53:16;99494.75;;;12.77;76.77
58295;BME280;45705;55.592;37.460;2023-06-14T00:55:44;99498.03;;;12.88;76.03
58295;BME280;45705;55.592;37.460;2023-06-14T00:58:11;99492.19;;;12.81;75.89
58295;BME280;45705;55.592;37.460;2023-06-14T01:00:37;99485.44;;;12.70;77.50
58295;BME280;45705;55.592;37.460;2023-06-14T01:03:03;99489.97;;;12.83;77.25
58295;BME280;45705;55.592;37.460;2023-06-14T01:05:29;99487.34;;;12.69;78.05
58295;BME280;45705;55.592;37.460;2023-06-14T01:08:19;99489.28;;;12.69;78.56
58295;BME280;45705;55.592;37.460;2023-06-14T01:11:18;99485.78;;;12.77;78.13
58295;BME280;45705;55.592;37.460;2023-06-14T01:13:47;99491.59;;;12.84;77.74
58295;BME280;45705;55.592;37.460;2023-06-14T01:16:15;99481.94;;;12.78;77.78
58295;BME280;45705;55.592;37.460;2023-06-14T01:18:43;99489.75;;;12.62;78.34
58295;BME280;45705;55.592;37.460;2023-06-14T01:21:21;99491.50;;;12.67;78.80
58295;BME280;45705;55.592;37.460;2023-06-14T01:23:48;99481.94;;;12.78;78.16
58295;BME280;45705;55.592;37.460;2023-06-14T01:26:22;99481.94;;;12.78;77.96
58295;BME280;45705;55.592;37.460;2023-06-14T01:28:49;99483.31;;;12.67;78.49
58295;BME280;45705;55.592;37.460;2023-06-14T01:31:19;99498.13;;;12.43;80.25
58295;BME280;45705;55.592;37.460;2023-06-14T01:33:49;99490.38;;;12.68;78.94
58295;BME280;45705;55.592;37.460;2023-06-14T01:36:20;99495.72;;;12.73;77.84
58295;BME280;45705;55.592;37.460;2023-06-14T01:38:48;99495.09;;;12.76;77.85
58295;BME280;45705;55.592;37.460;2023-06-14T01:41:16;99490.03;;;13.00;77.04
58295;BME280;45705;55.592;37.460;2023-06-14T01:43:45;99490.63;;;12.89;78.00
58295;BME280;45705;55.592;37.460;2023-06-14T01:46:11;99494.19;;;12.89;78.41
58295;BME280;45705;55.592;37.460;2023-06-14T01:48:38;99488.25;;;12.87;78.69
58295;BME280;45705;55.592;37.460;2023-06-14T01:51:04;99490.38;;;12.99;78.16
58295;BME280;45705;55.592;37.460;2023-06-14T01:53:30;99499.53;;;13.12;77.43
58295;BME280;45705;55.592;37.460;2023-06-14T01:55:56;99495.97;;;12.94;77.70
58295;BME280;45705;55.592;37.460;2023-06-14T01:58:22;99497.91;;;13.02;77.92
58295;BME280;45705;55.592;37.460;2023-06-14T02:00:49;99496.03;;;13.20;75.92
58295;BME280;45705;55.592;37.460;2023-06-14T02:03:16;99491.94;;;13.40;74.34
58295;BME280;45705;55.592;37.460;2023-06-14T02:05:42;99489.81;;;13.28;75.23
58295;BME280;45705;55.592;37.460;2023-06-14T02:08:08;99481.88;;;13.18;75.72
58295;BME280;45705;55.592;37.460;2023-06-14T02:10:34;99486.72;;;13.21;75.24
58295;BME280;45705;55.592;37.460;2023-06-14T02:13:00;99484.63;;;13.18;75.45
58295;BME280;45705;55.592;37.460;2023-06-14T02:15:26;99487.75;;;13.34;75.17
58295;BME280;45705;55.592;37.460;2023-06-14T02:18:01;99486.97;;;13.51;74.43
58295;BME280;45705;55.592;37.460;2023-06-14T02:20:28;99487.41;;;13.35;75.02
58295;BME280;45705;55.592;37.460;2023-06-14T02:22:54;99485.38;;;13.50;75.87
58295;BME280;45705;55.592;37.460;2023-06-14T02:25:20;99489.69;;;13.51;76.17
58295;BME280;45705;55.592;37.460;2023-06-14T02:27:46;99485.22;;;13.72;75.00
58295;BME280;45705;55.592;37.460;2023-06-14T02:30:12;99486.50;;;13.84;74.84
58295;BME280;45705;55.592;37.460;2023-06-14T02:32:38;99482.97;;;13.83;75.25
58295;BME280;45705;55.592;37.460;2023-06-14T02:35:05;99482.19;;;14.00;74.34
58295;BME280;45705;55.592;37.460;2023-06-14T02:37:32;99475.75;;;13.96;74.40
58295;BME280;45705;55.592;37.460;2023-06-14T02:39:58;99486.81;;;14.08;74.19
58295;BME280;45705;55.592;37.460;2023-06-14T02:42:24;99479.22;;;14.23;74.18
58295;BME280;45705;55.592;37.460;2023-06-14T02:44:50;99487.44;;;14.31;73.51
58295;BME280;45705;55.592;37.460;2023-06-14T02:47:17;99483.66;;;14.53;72.72
58295;BME280;45705;55.592;37.460;2023-06-14T02:49:44;99489.94;;;14.71;69.30
58295;BME280;45705;55.592;37.460;2023-06-14T02:52:14;99500.56;;;14.55;73.77
58295;BME280;45705;55.592;37.460;2023-06-14T02:54:40;99488.84;;;14.64;74.78
58295;BME280;45705;55.592;37.460;2023-06-14T02:57:08;99499.78;;;15.02;72.76
58295;BME280;45705;55.592;37.460;2023-06-14T02:59:34;99498.28;;;15.13;67.40
58295;BME280;45705;55.592;37.460;2023-06-14T03:02:02;99493.50;;;15.31;63.77
58295;BME280;45705;55.592;37.460;2023-06-14T03:04:30;99497.44;;;15.51;66.61
58295;BME280;45705;55.592;37.460;2023-06-14T03:07:00;99503.66;;;15.61;66.86
58295;BME280;45705;55.592;37.460;2023-06-14T03:09:28;99496.41;;;15.86;64.90
58295;BME280;45705;55.592;37.460;2023-06-14T03:11:55;99488.97;;;16.99;55.39
58295;BME280;45705;55.592;37.460;2023-06-14T03:14:21;99485.59;;;19.15;49.03
58295;BME280;45705;55.592;37.460;2023-06-14T03:16:48;99479.59;;;20.85;42.88
58295;BME280;45705;55.592;37.460;2023-06-14T03:19:16;99483.06;;;22.19;39.16
58295;BME280;45705;55.592;37.460;2023-06-14T03:21:42;99481.63;;;22.29;37.50
58295;BME280;45705;55.592;37.460;2023-06-14T03:24:10;99479.44;;;23.42;35.39
58295;BME280;45705;55.592;37.460;2023-06-14T03:26:37;99469.50;;;24.21;33.69
58295;BME280;45705;55.592;37.460;2023-06-14T03:29:03;99471.22;;;24.80;32.24
58295;BME280;45705;55.592;37.460;2023-06-14T03:31:29;99475.56;;;25.02;31.69
58295;BME280;45705;55.592;37.460;2023-06-14T03:34:00;99472.00;;;24.98;31.58
58295;BME280;45705;55.592;37.460;2023-06-14T03:36:26;99462.84;;;25.37;30.80
58295;BME280;45705;55.592;37.460;2023-06-14T03:38:54;99474.38;;;24.74;31.93
58295;BME280;45705;55.592;37.460;2023-06-14T03:41:21;99475.16;;;24.93;31.77
58295;BME280;45705;55.592;37.460;2023-06-14T03:43:48;99470.22;;;25.90;29.98
58295;BME280;45705;55.592;37.460;2023-06-14T03:46:15;99459.66;;;26.34;29.27
58295;BME280;45705;55.592;37.460;2023-06-14T03:48:41;99463.59;;;26.40;28.84
58295;BME280;45705;55.592;37.460;2023-06-14T03:51:07;99471.59;;;26.38;28.36
58295;BME280;45705;55.592;37.460;2023-06-14T03:53:33;99470.59;;;26.74;28.13
58295;BME280;45705;55.592;37.460;2023-06-14T03:56:02;99473.97;;;26.99;27.71
58295;BME280;45705;55.592;37.460;2023-06-14T03:58:37;99471.97;;;27.79;26.60
58295;BME280;45705;55.592;37.460;2023-06-14T04:01:03;99463.38;;;27.25;26.70
58295;BME280;45705;55.592;37.460;2023-06-14T04:03:30;99473.19;;;28.09;26.27
58295;BME280;45705;55.592;37.460;2023-06-14T04:05:56;99469.88;;;26.55;28.09
58295;BME280;45705;55.592;37.460;2023-06-14T04:08:22;99467.72;;;26.81;27.48
58295;BME280;45705;55.592;37.460;2023-06-14T04:10:50;99469.56;;;27.78;26.41
58295;BME280;45705;55.592;37.460;2023-06-14T04:13:16;99472.44;;;27.36;26.85
58295;BME280;45705;55.592;37.460;2023-06-14T04:15:43;99475.97;;;27.78;26.02
58295;BME280;45705;55.592;37.460;2023-06-14T04:18:14;99465.19;;;29.60;23.95
58295;BME280;45705;55.592;37.460;2023-06-14T04:20:40;99471.47;;;29.24;24.13
58295;BME280;45705;55.592;37.460;2023-06-14T04:23:17;99467.63;;;29.58;23.45
58295;BME280;45705;55.592;37.460;2023-06-14T04:25:48;99466.09;;;28.86;24.89
58295;BME280;45705;55.592;37.460;2023-06-14T04:28:16;99468.47;;;29.35;23.63
58295;BME280;45705;55.592;37.460;2023-06-14T04:30:44;99468.88;;;28.86;24.29
58295;BME280;45705;55.592;37.460;2023-06-14T04:33:14;99467.44;;;29.01;24.13
58295;BME280;45705;55.592;37.460;2023-06-14T04:35:41;99470.47;;;29.34;24.13
58295;BME280;45705;55.592;37.460;2023-06-14T04:38:08;99465.59;;;29.38;24.07
58295;BME280;45705;55.592;37.460;2023-06-14T04:40:36;99468.72;;;30.04;23.46
58295;BME280;45705;55.592;37.460;2023-06-14T04:43:09;99465.91;;;30.04;23.00
58295;BME280;45705;55.592;37.460;2023-06-14T04:45:39;99459.94;;;30.91;22.32
58295;BME280;45705;55.592;37.460;2023-06-14T04:48:05;99461.84;;;31.11;22.62
58295;BME280;45705;55.592;37.460;2023-06-14T04:50:32;99461.84;;;31.11;22.27
58295;BME280;45705;55.592;37.460;2023-06-14T04:52:59;99452.34;;;30.39;23.26
58295;BME280;45705;55.592;37.460;2023-06-14T04:55:26;99457.69;;;31.15;22.31
58295;BME280;45705;55.592;37.460;2023-06-14T04:57:52;99465.16;;;31.06;22.68
58295;BME280;45705;55.592;37.460;2023-06-14T05:00:21;99451.13;;;31.06;22.96
58295;BME280;45705;55.592;37.460;2023-06-14T05:02:47;99456.91;;;30.33;22.39
58295;BME280;45705;55.592;37.460;2023-06-14T05:05:15;99452.41;;;31.63;21.93
58295;BME280;45705;55.592;37.460;2023-06-14T05:07:42;99454.44;;;29.78;22.76
58295;BME280;45705;55.592;37.460;2023-06-14T05:10:09;99440.75;;;27.84;24.39
58295;BME280;45705;55.592;37.460;2023-06-14T05:12:35;99461.34;;;29.94;22.88
58295;BME280;45705;55.592;37.460;2023-06-14T05:15:02;99463.72;;;29.32;22.58
58295;BME280;45705;55.592;37.460;2023-06-14T05:17:29;99467.06;;;28.76;24.13
58295;BME280;45705;55.592;37.460;2023-06-14T05:19:55;99465.34;;;29.93;22.79
58295;BME280;45705;55.592;37.460;2023-06-14T05:22:21;99469.16;;;29.19;23.33
58295;BME280;45705;55.592;37.460;2023-06-14T05:24:47;99470.75;;;29.20;23.37
58295;BME280;45705;55.592;37.460;2023-06-14T05:27:14;99458.72;;;29.63;22.75
58295;BME280;45705;55.592;37.460;2023-06-14T05:29:39;99456.00;;;28.11;24.18
58295;BME280;45705;55.592;37.460;2023-06-14T05:32:06;99461.28;;;27.71;23.52
58295;BME280;45705;55.592;37.460;2023-06-14T05:34:32;99462.19;;;29.27;22.77
58295;BME280;45705;55.592;37.460;2023-06-14T05:36:57;99460.84;;;28.88;22.62
58295;BME280;45705;55.592;37.460;2023-06-14T05:39:24;99464.78;;;30.38;21.22
58295;BME280;45705;55.592;37.460;2023-06-14T05:41:50;99462.69;;;30.42;21.50
58295;BME280;45705;55.592;37.460;2023-06-14T05:44:15;99471.97;;;30.55;21.40
58295;BME280;45705;55.592;37.460;2023-06-14T05:46:41;99475.72;;;29.52;21.68
58295;BME280;45705;55.592;37.460;2023-06-14T05:49:07;99480.97;;;29.30;20.98
58295;BME280;45705;55.592;37.460;2023-06-14T05:51:33;99471.09;;;29.86;20.67
58295;BME280;45705;55.592;37.460;2023-06-14T05:53:59;99465.34;;;30.66;21.44
58295;BME280;45705;55.592;37.460;2023-06-14T05:56:25;99464.28;;;30.76;21.64
58295;BME280;45705;55.592;37.460;2023-06-14T05:58:51;99469.97;;;28.92;21.92
58295;BME280;45705;55.592;37.460;2023-06-14T06:01:17;99472.31;;;29.21;21.48
58295;BME280;45705;55.592;37.460;2023-06-14T06:03:43;99475.84;;;29.89;21.19
58295;BME280;45705;55.592;37.460;2023-06-14T06:06:12;99481.41;;;29.49;21.00
58295;BME280;45705;55.592;37.460;2023-06-14T06:08:38;99473.06;;;30.78;20.29
58295;BME280;45705;55.592;37.460;2023-06-14T06:11:04;99468.69;;;31.55;19.22
58295;BME280;45705;55.592;37.460;2023-06-14T06:13:30;99478.22;;;28.52;22.54
58295;BME280;45705;55.592;37.460;2023-06-14T06:15:56;99485.31;;;28.30;22.45
58295;BME280;45705;55.592;37.460;2023-06-14T06:18:22;99481.09;;;29.87;21.56
58295;BME280;45705;55.592;37.460;2023-06-14T06:20:47;99477.09;;;30.44;20.59
58295;BME280;45705;55.592;37.460;2023-06-14T06:23:13;99478.25;;;29.47;21.29
58295;BME280;45705;55.592;37.460;2023-06-14T06:25:39;99486.00;;;29.82;20.17
58295;BME280;45705;55.592;37.460;2023-06-14T06:28:05;99473.91;;;28.71;21.75
58295;BME280;45705;55.592;37.460;2023-06-14T06:30:31;99464.88;;;28.63;21.66
58295;BME280;45705;55.592;37.460;2023-06-14T06:32:57;99469.38;;;28.26;21.61
58295;BME280;45705;55.592;37.460;2023-06-14T06:35:23;99460.19;;;28.80;21.65
58295;BME280;45705;55.592;37.460;2023-06-14T06:37:49;99466.00;;;27.39;22.89
58295;BME280;45705;55.592;37.460;2023-06-14T06:40:15;99475.75;;;27.62;22.99
58295;BME280;45705;55.592;37.460;2023-06-14T06:42:41;99486.06;;;27.30;23.07
58295;BME280;45705;55.592;37.460;2023-06-14T06:45:11;99467.69;;;29.54;21.64
58295;BME280;45705;55.592;37.460;2023-06-14T06:47:37;99470.69;;;28.45;22.19
58295;BME280;45705;55.592;37.460;2023-06-14T06:50:02;99487.03;;;28.20;22.97
58295;BME280;45705;55.592;37.460;2023-06-14T06:52:32;99480.63;;;28.77;21.52
58295;BME280;45705;55.592;37.460;2023-06-14T06:54:57;99478.59;;;29.49;21.18
58295;BME280;45705;55.592;37.460;2023-06-14T06:57:23;99475.94;;;28.94;21.47
58295;BME280;45705;55.592;37.460;2023-06-14T06:59:49;99485.00;;;27.55;22.67
58295;BME280;45705;55.592;37.460;2023-06-14T07:02:16;99484.06;;;27.69;22.79
58295;BME280;45705;55.592;37.460;2023-06-14T07:04:42;99470.59;;;28.80;21.78
58295;BME280;45705;55.592;37.460;2023-06-14T07:07:08;99480.06;;;27.32;23.31
58295;BME280;45705;55.592;37.460;2023-06-14T07:09:35;99458.63;;;27.60;23.39
58295;BME280;45705;55.592;37.460;2023-06-14T07:12:01;99467.56;;;26.46;23.98
58295;BME280;45705;55.592;37.460;2023-06-14T07:14:27;99459.59;;;27.80;22.55
58295;BME280;45705;55.592;37.460;2023-06-14T07:16:54;99456.13;;;29.32;21.50
58295;BME280;45705;55.592;37.460;2023-06-14T07:19:20;99461.66;;;27.73;22.45
58295;BME280;45705;55.592;37.460;2023-06-14T07:21:46;99455.00;;;28.55;21.65
58295;BME280;45705;55.592;37.460;2023-06-14T07:24:12;99457.03;;;26.76;23.76
58295;BME280;45705;55.592;37.460;2023-06-14T07:26:37;99455.09;;;27.90;23.06
58295;BME280;45705;55.592;37.460;2023-06-14T07:29:03;99445.88;;;26.72;24.03
58295;BME280;45705;55.592;37.460;2023-06-14T07:31:29;99459.78;;;28.27;22.87
58295;BME280;45705;55.592;37.460;2023-06-14T07:33:54;99448.31;;;28.73;21.92
58295;BME280;45705;55.592;37.460;2023-06-14T07:36:20;99457.00;;;27.24;23.26
58295;BME280;45705;55.592;37.460;2023-06-14T07:38:46;99466.00;;;26.42;24.16
58295;BME280;45705;55.592;37.460;2023-06-14T07:41:12;99459.91;;;25.91;24.54
58295;BME280;45705;55.592;37.460;2023-06-14T07:43:37;99470.00;;;25.31;24.67
58295;BME280;45705;55.592;37.460;2023-06-14T07:46:04;99473.19;;;24.68;25.24
58295;BME280;45705;55.592;37.460;2023-06-14T07:48:30;99455.88;;;23.80;27.40
58295;BME280;45705;55.592;37.460;2023-06-14T07:50:55;99472.72;;;24.48;26.67
58295;BME280;45705;55.592;37.460;2023-06-14T07:53:21;99461.91;;;23.27;28.27
58295;BME280;45705;55.592;37.460;2023-06-14T07:55:47;99451.59;;;24.08;27.15
58295;BME280;45705;55.592;37.460;2023-06-14T07:58:14;99447.34;;;23.44;27.75
58295;BME280;45705;55.592;37.460;2023-06-14T08:00:40;99448.72;;;23.79;27.24
58295;BME280;45705;55.592;37.460;2023-06-14T08:03:05;99458.72;;;24.05;27.01
58295;BME280;45705;55.592;37.460;2023-06-14T08:05:31;99458.38;;;24.17;27.70
58295;BME280;45705;55.592;37.460;2023-06-14T08:07:57;99452.16;;;23.54;28.28
58295;BME280;45705;55.592;37.460;2023-06-14T08:10:23;99458.03;;;23.46;28.50
58295;BME280;45705;55.592;37.460;2023-06-14T08:12:49;99453.00;;;23.73;28.42
58295;BME280;45705;55.592;37.460;2023-06-14T08:15:18;99451.75;;;23.52;28.25
58295;BME280;45705;55.592;37.460;2023-06-14T08:17:44;99457.09;;;23.20;29.05
58295;BME280;45705;55.592;37.460;2023-06-14T08:20:11;99466.66;;;22.33;30.01
58295;BME280;45705;55.592;37.460;2023-06-14T08:22:37;99459.88;;;22.72;30.33
58295;BME280;45705;55.592;37.460;2023-06-14T08:25:05;99464.53;;;22.64;29.20
58295;BME280;45705;55.592;37.460;2023-06-14T08:27:32;99465.53;;;22.41;29.52
58295;BME280;45705;55.592;37.460;2023-06-14T08:29:58;99456.78;;;22.80;29.28
58295;BME280;45705;55.592;37.460;2023-06-14T08:32:23;99454.44;;;22.83;29.03
58295;BME280;45705;55.592;37.460;2023-06-14T08:34:49;99459.19;;;22.82;29.04
58295;BME280;45705;55.592;37.460;2023-06-14T08:37:15;99444.81;;;22.69;28.90
58295;BME280;45705;55.592;37.460;2023-06-14T08:39:41;99458.84;;;22.46;29.44
58295;BME280;45705;55.592;37.460;2023-06-14T08:42:08;99472.22;;;21.73;30.31
58295;BME280;45705;55.592;37.460;2023-06-14T08:44:34;99462.34;;;21.72;30.37
58295;BME280;45705;55.592;37.460;2023-06-14T08:47:00;99467.34;;;21.62;30.66
58295;BME280;45705;55.592;37.460;2023-06-14T08:49:26;99448.41;;;21.65;30.78
58295;BME280;45705;55.592;37.460;2023-06-14T08:51:57;99456.97;;;21.52;30.30
58295;BME280;45705;55.592;37.460;2023-06-14T08:54:25;99455.72;;;21.80;29.81
58295;BME280;45705;55.592;37.460;2023-06-14T08:56:53;99448.81;;;21.97;29.15
58295;BME280;45705;55.592;37.460;2023-06-14T08:59:26;99444.13;;;21.71;29.09
58295;BME280;45705;55.592;37.460;2023-06-14T09:01:53;99439.38;;;21.71;29.35
58295;BME280;45705;55.592;37.460;2023-06-14T09:04:23;99447.38;;;21.76;29.28
58295;BME280;45705;55.592;37.460;2023-06-14T09:06:56;99444.66;;;21.80;30.17
58295;BME280;45705;55.592;37.460;2023-06-14T09:09:22;99435.44;;;22.02;29.65
58295;BME280;45705;55.592;37.460;2023-06-14T09:11:50;99435.66;;;22.24;29.01
58295;BME280;45705;55.592;37.460;2023-06-14T09:14:18;99421.22;;;22.41;29.13
58295;BME280;45705;55.592;37.460;2023-06-14T09:16:44;99424.63;;;21.94;30.11
58295;BME280;45705;55.592;37.460;2023-06-14T09:19:20;99430.34;;;22.46;29.28
58295;BME280;45705;55.592;37.460;2023-06-14T09:21:47;99438.69;;;21.78;30.14
58295;BME280;45705;55.592;37.460;2023-06-14T09:24:14;99433.13;;;22.12;30.00
58295;BME280;45705;55.592;37.460;2023-06-14T09:26:40;99432.16;;;21.93;30.09
58295;BME280;45705;55.592;37.460;2023-06-14T09:29:06;99439.94;;;21.84;29.05
58295;BME280;45705;55.592;37.460;2023-06-14T09:31:32;99427.81;;;21.96;28.74
58295;BME280;45705;55.592;37.460;2023-06-14T09:34:01;99430.78;;;22.14;28.86
58295;BME280;45705;55.592;37.460;2023-06-14T09:36:28;99433.34;;;22.26;28.94
58295;BME280;45705;55.592;37.460;2023-06-14T09:39:01;99431.72;;;22.25;28.65
58295;BME280;45705;55.592;37.460;2023-06-14T09:41:34;99426.19;;;22.25;29.53
58295;BME280;45705;55.592;37.460;2023-06-14T09:44:03;99426.00;;;21.77;28.61
58295;BME280;45705;55.592;37.460;2023-06-14T09:46:30;99421.13;;;21.97;29.19
58295;BME280;45705;55.592;37.460;2023-06-14T09:48:57;99430.03;;;22.17;29.32
58295;BME280;45705;55.592;37.460;2023-06-14T09:51:23;99408.78;;;22.25;28.75
58295;BME280;45705;55.592;37.460;2023-06-14T09:53:50;99415.50;;;21.90;29.03
58295;BME280;45705;55.592;37.460;2023-06-14T09:56:23;99429.06;;;21.98;29.86
58295;BME280;45705;55.592;37.460;2023-06-14T09:58:54;99415.03;;;21.50;30.37
58295;BME280;45705;55.592;37.460;2023-06-14T10:01:22;99409.91;;;21.86;30.31
58295;BME280;45705;55.592;37.460;2023-06-14T10:03:50;99404.09;;;22.32;29.91
58295;BME280;45705;55.592;37.460;2023-06-14T10:06:20;99389.41;;;22.73;29.62
58295;BME280;45705;55.592;37.460;2023-06-14T10:08:52;99386.00;;;22.94;29.46
58295;BME280;45705;55.592;37.460;2023-06-14T10:11:17;99386.47;;;23.03;29.90
58295;BME280;45705;55.592;37.460;2023-06-14T10:13:44;99388.75;;;22.94;29.46
58295;BME280;45705;55.592;37.460;2023-06-14T10:24:13;99389.28;;;22.55;30.43
58295;BME280;45705;55.592;37.460;2023-06-14T10:26:54;99385.72;;;22.17;30.63
58295;BME280;45705;55.592;37.460;2023-06-14T10:29:22;99401.94;;;22.15;30.66
58295;BME280;45705;55.592;37.460;2023-06-14T10:31:58;99376.16;;;22.11;30.10
58295;BME280;45705;55.592;37.460;2023-06-14T10:34:25;99382.69;;;22.26;30.06
58295;BME280;45705;55.592;37.460;2023-06-14T10:37:01;99381.16;;;22.32;30.45
58295;BME280;45705;55.592;37.460;2023-06-14T10:39:28;99376.50;;;22.43;29.97
58295;BME280;45705;55.592;37.460;2023-06-14T10:41:56;99379.34;;;22.54;29.97
58295;BME280;45705;55.592;37.460;2023-06-14T10:46:49;99372.88;;;22.35;29.78
58295;BME280;45705;55.592;37.460;2023-06-14T10:49:18;99369.78;;;22.44;30.03
58295;BME280;45705;55.592;37.460;2023-06-14T10:51:46;99363.25;;;22.70;29.78
58295;BME280;45705;55.592;37.460;2023-06-14T10:54:24;99354.63;;;22.83;29.59
58295;BME280;45705;55.592;37.460;2023-06-14T10:56:53;99357.53;;;22.49;28.16
58295;BME280;45705;55.592;37.460;2023-06-14T10:59:20;99356.56;;;22.78;28.34
58295;BME280;45705;55.592;37.460;2023-06-14T11:01:58;99362.38;;;22.59;29.57
58295;BME280;45705;55.592;37.460;2023-06-14T11:04:51;99359.88;;;22.47;29.22
58295;BME280;45705;55.592;37.460;2023-06-14T11:07:52;99375.66;;;22.35;29.26
58295;BME280;45705;55.592;37.460;2023-06-14T11:10:50;99356.66;;;22.37;29.79
58295;BME280;45705;55.592;37.460;2023-06-14T11:13:17;99353.34;;;22.69;29.42
58295;BME280;45705;55.592;37.460;2023-06-14T11:15:44;99341.91;;;22.74;29.38
58295;BME280;45705;55.592;37.460;2023-06-14T11:18:12;99345.91;;;22.84;28.99
58295;BME280;45705;55.592;37.460;2023-06-14T11:20:39;99349.19;;;23.00;29.92
58295;BME280;45705;55.592;37.460;2023-06-14T11:23:05;99348.25;;;22.78;29.43
58295;BME280;45705;55.592;37.460;2023-06-14T11:25:32;99325.63;;;22.69;28.96
58295;BME280;45705;55.592;37.460;2023-06-14T11:27:58;99335.63;;;22.85;29.35
58295;BME280;45705;55.592;37.460;2023-06-14T11:30:25;99333.19;;;22.76;29.16
58295;BME280;45705;55.592;37.460;2023-06-14T11:32:54;99334.94;;;23.02;29.27
58295;BME280;45705;55.592;37.460;2023-06-14T11:35:24;99337.56;;;22.77;29.33
58295;BME280;45705;55.592;37.460;2023-06-14T11:37:56;99326.69;;;23.16;28.97
58295;BME280;45705;55.592;37.460;2023-06-14T11:40:24;99330.06;;;22.85;28.75
58295;BME280;45705;55.592;37.460;2023-06-14T11:42:58;99324.31;;;23.11;29.04
58295;BME280;45705;55.592;37.460;2023-06-14T11:45:24;99342.84;;;23.00;28.55
58295;BME280;45705;55.592;37.460;2023-06-14T11:47:50;99326.94;;;22.86;29.17
58295;BME280;45705;55.592;37.460;2023-06-14T11:50:16;99322.53;;;22.85;28.83
58295;BME280;45705;55.592;37.460;2023-06-14T11:52:42;99322.22;;;23.01;29.23
58295;BME280;45705;55.592;37.460;2023-06-14T11:55:08;99321.84;;;22.95;28.70
58295;BME280;45705;55.592;37.460;2023-06-14T11:57:34;99326.09;;;22.78;28.44
58295;BME280;45705;55.592;37.460;2023-06-14T12:00:06;99314.31;;;22.96;28.15
58295;BME280;45705;55.592;37.460;2023-06-14T12:02:38;99314.38;;;23.03;28.11
58295;BME280;45705;55.592;37.460;2023-06-14T12:05:07;99308.84;;;23.03;27.70
58295;BME280;45705;55.592;37.460;2023-06-14T12:07:39;99324.69;;;23.06;28.25
58295;BME280;45705;55.592;37.460;2023-06-14T12:10:07;99314.84;;;22.57;29.01
58295;BME280;45705;55.592;37.460;2023-06-14T12:12:37;99309.53;;;22.93;28.82
58295;BME280;45705;55.592;37.460;2023-06-14T12:15:08;99305.72;;;23.15;28.58
58295;BME280;45705;55.592;37.460;2023-06-14T12:17:35;99315.19;;;23.07;28.85
58295;BME280;45705;55.592;37.460;2023-06-14T12:20:22;99307.28;;;23.13;29.01
58295;BME280;45705;55.592;37.460;2023-06-14T12:22:56;99301.75;;;23.13;28.75
58295;BME280;45705;55.592;37.460;2023-06-14T12:25:32;99300.16;;;23.15;28.80
58295;BME280;45705;55.592;37.460;2023-06-14T12:28:06;99303.69;;;23.09;28.58
58295;BME280;45705;55.592;37.460;2023-06-14T12:30:33;99292.22;;;23.10;28.90
58295;BME280;45705;55.592;37.460;2023-06-14T12:32:59;99292.69;;;23.27;29.77
58295;BME280;45705;55.592;37.460;2023-06-14T12:35:26;99281.97;;;23.25;29.70
58295;BME280;45705;55.592;37.460;2023-06-14T12:37:51;99281.16;;;23.17;28.94
58295;BME280;45705;55.592;37.460;2023-06-14T12:40:17;99284.28;;;23.09;29.48
58295;BME280;45705;55.592;37.460;2023-06-14T12:42:44;99283.19;;;23.35;29.51
58295;BME280;45705;55.592;37.460;2023-06-14T12:45:12;99281.03;;;22.96;28.87
58295;BME280;45705;55.592;37.460;2023-06-14T12:47:38;99292.25;;;23.17;28.52
58295;BME280;45705;55.592;37.460;2023-06-14T12:50:05;99292.13;;;22.96;28.23
58295;BME280;45705;55.592;37.460;2023-06-14T12:52:31;99276.63;;;22.91;28.38
58295;BME280;45705;55.592;37.460;2023-06-14T12:54:57;99278.63;;;22.94;28.47
58295;BME280;45705;55.592;37.460;2023-06-14T12:57:23;99274.69;;;22.99;28.88
58295;BME280;45705;55.592;37.460;2023-06-14T12:59:49;99264.94;;;23.34;28.37
58295;BME280;45705;55.592;37.460;2023-06-14T13:02:19;99267.72;;;23.27;28.41
58295;BME280;45705;55.592;37.460;2023-06-14T13:04:50;99266.16;;;23.44;28.43